Airfield :
LOGIN :

Register | Disclaimer

   EN    FR    IT 

 










Legend :    VFR   Marginal VFR   IFR   Intensive IFR   Very Intensive IFR
Visi :
Ceiling :
>= 8 km
>= 3000ft
5 to 8 km
1000 to 3000 ft
1500m to 5 km
500 to 1000 ft
800 to 1500m
200 to 500 ft
< 800m
< 200 ft
Symbols :   Thunderstorms  Fog  Heavy snow  Heavy precipitations  Wind > 20 kt
SIGMETs :     Misc.  Thunderstorms  Icing  Turbulence  Mountain Waves  Volcanic Ashes







- Airport Elevation : 1260 ft
- IATA code : LDE
- Download approach charts


LFBT - Tarbes / Ossun

CURRENT METAR :
  • 231130Z AUTO 04006KT 330V090 CAVOK 24/11 Q1021 NOSIG

EXPIRED METARs :
  • 231100Z AUTO VRB04KT CAVOK 24/12 Q1022 NOSIG
  • 231030Z AUTO 01006KT 300V070 CAVOK 24/11 Q1022 NOSIG
  • 231000Z AUTO VRB05KT CAVOK 24/12 Q1022 NOSIG
  • 230930Z AUTO 36005KT 300V050 CAVOK 23/13 Q1022 NOSIG
  • 230900Z AUTO 33004KT 290V060 CAVOK 22/14 Q1022 NOSIG
  • 230830Z AUTO VRB03KT CAVOK 21/15 Q1022 NOSIG

TAF TAF LFBT
Valid from the 23 at 06:00 until the 24 at 06:00 UTC


230500Z 2306/2406 VRB02KT CAVOK
BECMG 2307/2309 04005KT
No reported NOTAMs for that airfield.



MET'MAP, your aeronautical weather chart ! - Copyright ORBIFLY December 2007 - Disclaimer

ORBIFLY MET'MAP TEAM :

Programming & Development : Alexandra Zaïnal
Concept & Development : Baudouin d'Aumeries
Co-Development & Prog : Marc-Olivier Méhu
Technical & hardware support : Manuel Goepfert

Contact : metmap@orbifly.com




SOURCES & CREDITS :

   NOAA